Time;durP1;ratioP1;P1;durP2;ratioP2;P2;SDS_P1;SDS_P2;PMS_P1;PMS_P2;Temp;Humidity;BMP_temperature;BMP_pressure;BME280_temperature;BME280_humidity;BME280_pressure;Samples;Min_cycle;Max_cycle;Signal;HPM_P1;HPM_P2
2021/11/26 00:02:22;;;;;;;9.43;8.03;;;3.50;99.90;;;;;;7382394;19;20337;-85
2021/11/26 00:05:03;;;;;;;9.90;8.18;;;3.50;99.90;;;;;;7408998;19;20321;-83
2021/11/26 00:07:32;;;;;;;10.25;8.18;;;3.50;99.90;;;;;;7398191;19;20337;-83
2021/11/26 00:10:05;;;;;;;9.63;8.40;;;3.50;99.90;;;;;;7392839;19;20320;-83
2021/11/26 00:12:46;;;;;;;10.93;7.85;;;3.50;99.90;;;;;;7264193;19;2004471;-83
2021/11/26 00:15:26;;;;;;;8.82;7.93;;;3.30;99.90;;;;;;7280615;19;2004471;-83
2021/11/26 00:17:56;;;;;;;10.32;8.40;;;3.50;99.90;;;;;;7283413;19;2004519;-82
2021/11/26 00:20:23;;;;;;;8.98;8.10;;;3.60;99.90;;;;;;7381122;19;20301;-82
2021/11/26 00:22:51;;;;;;;8.80;7.83;;;3.50;99.90;;;;;;7397790;19;20313;-83
2021/11/26 00:25:21;;;;;;;9.23;7.75;;;3.50;99.90;;;;;;7403969;19;20321;-83
2021/11/26 00:27:57;;;;;;;10.50;8.07;;;3.60;99.90;;;;;;7389977;19;20340;-82
2021/11/26 00:30:28;;;;;;;9.80;8.57;;;3.60;99.90;;;;;;7365881;19;20319;-82
2021/11/26 00:33:01;;;;;;;9.60;8.20;;;3.60;99.90;;;;;;7371345;19;20400;-82
2021/11/26 00:35:29;;;;;;;11.18;8.57;;;3.70;99.90;;;;;;7377317;19;20325;-83
2021/11/26 00:38:00;;;;;;;10.83;8.80;;;3.60;99.90;;;;;;7378988;19;20321;-82
2021/11/26 00:40:31;;;;;;;8.88;7.97;;;3.70;99.90;;;;;;7403365;19;20324;-81
2021/11/26 00:43:02;;;;;;;11.63;8.60;;;3.60;99.90;;;;;;7394740;19;20384;-81
2021/11/26 00:45:36;;;;;;;10.23;8.52;;;3.70;99.90;;;;;;7336278;19;20950;-82
2021/11/26 00:48:24;;;;;;;8.98;8.07;;;3.70;99.90;;;;;;7362773;19;20385;-83
2021/11/26 00:50:54;;;;;;;11.65;8.63;;;3.60;99.90;;;;;;7357918;19;20282;-82
2021/11/26 00:53:25;;;;;;;10.18;8.23;;;3.70;99.90;;;;;;7335926;19;20328;-84
2021/11/26 00:55:53;;;;;;;9.73;8.73;;;3.60;99.90;;;;;;7382610;19;20360;-81
2021/11/26 00:58:22;;;;;;;9.60;8.23;;;3.80;99.90;;;;;;7362034;19;20305;-80
2021/11/26 01:00:56;;;;;;;9.55;8.07;;;3.70;99.90;;;;;;7280222;19;2004467;-82
2021/11/26 01:03:27;;;;;;;10.55;8.73;;;3.70;99.90;;;;;;7395393;19;20313;-83
2021/11/26 01:06:03;;;;;;;8.82;7.80;;;3.70;99.90;;;;;;7385753;19;20332;-82
2021/11/26 01:09:08;;;;;;;9.02;8.10;;;3.70;99.90;;;;;;7387781;19;20329;-84
2021/11/26 01:11:39;;;;;;;9.40;8.23;;;3.60;99.90;;;;;;7257207;19;2004558;-82
2021/11/26 01:14:12;;;;;;;9.30;7.85;;;3.70;99.90;;;;;;7352909;19;20363;-84
2021/11/26 01:16:46;;;;;;;9.55;7.88;;;3.70;99.90;;;;;;7367888;19;20854;-80
2021/11/26 01:19:39;;;;;;;10.23;9.02;;;3.70;99.90;;;;;;7293702;19;2004435;-81
2021/11/26 01:22:08;;;;;;;9.75;8.50;;;3.80;99.90;;;;;;7385140;19;20321;-83
2021/11/26 01:24:40;;;;;;;9.13;7.50;;;3.80;99.90;;;;;;7382534;19;20797;-82
2021/11/26 01:27:11;;;;;;;9.45;8.02;;;3.80;99.90;;;;;;7385250;19;20337;-83
2021/11/26 01:29:41;;;;;;;8.48;7.60;;;3.70;99.90;;;;;;7315881;19;20360;-82
2021/11/26 01:32:19;;;;;;;11.77;8.15;;;3.80;99.90;;;;;;7304456;19;20395;-82
2021/11/26 01:34:49;;;;;;;9.40;8.43;;;3.80;99.90;;;;;;7363915;19;20329;-82
2021/11/26 01:37:40;;;;;;;8.95;7.40;;;3.80;99.90;;;;;;7382617;19;20337;-81
2021/11/26 01:40:15;;;;;;;9.15;7.53;;;3.80;99.90;;;;;;7320142;19;20348;-82
2021/11/26 01:43:08;;;;;;;10.02;8.07;;;3.80;99.90;;;;;;7242449;19;2004454;-82
2021/11/26 01:45:52;;;;;;;8.32;7.43;;;3.80;99.90;;;;;;7361632;19;20345;-82
2021/11/26 01:48:25;;;;;;;9.10;8.18;;;3.80;99.90;;;;;;7264127;19;2004464;-82
2021/11/26 01:51:29;;;;;;;7.95;7.20;;;3.80;99.90;;;;;;7349273;19;20586;-82
2021/11/26 01:54:38;;;;;;;8.13;7.30;;;3.80;99.90;;;;;;7361814;19;20312;-81
2021/11/26 01:57:07;;;;;;;8.60;7.68;;;3.70;99.90;;;;;;7291578;19;2004043;-82
2021/11/26 01:59:40;;;;;;;7.55;6.85;;;3.70;99.90;;;;;;7361949;19;20328;-82
2021/11/26 02:02:33;;;;;;;7.85;7.05;;;3.80;99.90;;;;;;7235701;19;2004077;-82
2021/11/26 02:05:09;;;;;;;8.18;7.38;;;3.60;99.90;;;;;;7363746;19;20379;-82
2021/11/26 02:07:57;;;;;;;9.50;7.90;;;3.70;99.90;;;;;;7269593;19;2004049;-82
2021/11/26 02:10:34;;;;;;;7.90;7.10;;;3.70;99.90;;;;;;7361844;19;20296;-82
2021/11/26 02:13:09;;;;;;;8.45;7.55;;;3.80;99.90;;;;;;7331329;19;20332;-82
2021/11/26 02:15:43;;;;;;;9.55;7.82;;;3.80;99.90;;;;;;7379652;19;20301;-82
2021/11/26 02:18:12;;;;;;;8.20;7.40;;;3.80;99.90;;;;;;7377388;19;20312;-88
2021/11/26 02:20:44;;;;;;;9.27;8.13;;;3.70;99.90;;;;;;7279134;19;2004523;-81
2021/11/26 02:23:15;;;;;;;8.55;7.38;;;3.70;99.90;;;;;;7376899;19;20305;-81
2021/11/26 02:25:50;;;;;;;8.07;7.28;;;3.70;99.90;;;;;;7357624;19;20354;-82
2021/11/26 02:28:21;;;;;;;8.90;8.10;;;3.80;99.90;;;;;;7370573;19;20395;-82
2021/11/26 02:30:53;;;;;;;8.20;7.38;;;3.80;99.90;;;;;;7330318;19;20341;-82
2021/11/26 02:33:46;;;;;;;7.68;6.80;;;3.70;99.90;;;;;;7400979;19;20727;-84
2021/11/26 02:36:16;;;;;;;7.47;6.13;;;3.80;99.90;;;;;;7357394;19;20323;-83
2021/11/26 02:38:52;;;;;;;10.70;7.60;;;3.80;99.90;;;;;;7314197;19;20321;-82
2021/11/26 02:44:44;;;;;;;7.70;6.90;;;3.80;99.90;;;;;;7362702;19;20328;-82
2021/11/26 02:47:22;;;;;;;8.50;7.43;;;3.80;99.90;;;;;;7256568;19;2004400;-83
2021/11/26 02:53:01;;;;;;;8.68;6.93;;;3.70;99.90;;;;;;7380902;19;20376;-82
2021/11/26 02:55:53;;;;;;;8.50;6.85;;;3.80;99.90;;;;;;7294710;19;20356;-83
2021/11/26 02:58:32;;;;;;;7.72;6.82;;;3.70;99.90;;;;;;7291947;19;2004387;-83
2021/11/26 03:01:04;;;;;;;7.07;6.43;;;3.80;99.90;;;;;;7340988;19;20310;-82
2021/11/26 03:03:37;;;;;;;8.20;7.40;;;3.70;99.90;;;;;;7368248;19;20882;-81
2021/11/26 03:06:09;;;;;;;7.88;6.75;;;3.80;99.90;;;;;;7350519;19;20954;-79
2021/11/26 03:08:39;;;;;;;6.60;6.00;;;3.80;99.90;;;;;;7385639;19;20360;-82
2021/11/26 03:11:10;;;;;;;8.57;6.85;;;3.80;99.90;;;;;;7386342;19;20340;-83
2021/11/26 03:13:41;;;;;;;9.23;6.78;;;3.80;99.90;;;;;;7385184;19;20324;-81
2021/11/26 03:16:27;;;;;;;8.77;7.00;;;3.80;99.90;;;;;;7391647;19;20331;-80
2021/11/26 03:19:11;;;;;;;7.43;6.53;;;3.80;99.90;;;;;;7235300;19;2004370;-82
2021/11/26 03:21:40;;;;;;;9.50;7.13;;;3.80;99.90;;;;;;7269121;19;2004294;-80
2021/11/26 03:24:20;;;;;;;8.00;7.18;;;3.80;99.90;;;;;;7365446;19;20376;-82
2021/11/26 03:27:17;;;;;;;6.85;6.25;;;3.80;99.90;;;;;;7260535;19;2004756;-83
2021/11/26 03:30:06;;;;;;;9.30;6.70;;;3.70;99.90;;;;;;7205854;19;2004412;-83
2021/11/26 03:32:40;;;;;;;7.85;6.35;;;3.90;99.90;;;;;;7354377;19;20344;-82
2021/11/26 03:35:06;;;;;;;6.78;6.03;;;3.80;99.90;;;;;;7383283;19;20878;-82
2021/11/26 03:37:33;;;;;;;7.63;6.57;;;3.80;99.90;;;;;;7368894;19;20372;-81
2021/11/26 03:40:04;;;;;;;7.78;6.15;;;3.90;99.90;;;;;;7329335;19;20336;-80
2021/11/26 03:42:29;;;;;;;7.23;6.50;;;3.80;99.90;;;;;;7391404;19;20334;-83
2021/11/26 03:44:57;;;;;;;9.83;6.80;;;3.80;99.90;;;;;;7391799;19;20333;-82
2021/11/26 03:47:32;;;;;;;7.33;6.57;;;3.80;99.90;;;;;;7351013;19;20333;-82
2021/11/26 03:50:04;;;;;;;7.15;6.45;;;3.80;99.90;;;;;;7344902;19;20394;-82
2021/11/26 03:52:33;;;;;;;9.38;6.75;;;3.80;99.90;;;;;;7369537;19;20327;-83
2021/11/26 03:55:03;;;;;;;8.20;7.28;;;3.80;99.90;;;;;;7380289;19;20313;-83
2021/11/26 03:57:29;;;;;;;8.52;7.57;;;3.80;99.90;;;;;;7387074;19;20349;-80
2021/11/26 03:59:55;;;;;;;8.02;7.22;;;3.80;99.90;;;;;;7368324;19;20834;-82
2021/11/26 04:02:21;;;;;;;7.85;6.53;;;3.80;99.90;;;;;;7390246;19;20331;-83
2021/11/26 04:04:46;;;;;;;9.00;7.30;;;3.70;99.90;;;;;;7384846;19;20325;-85
2021/11/26 04:07:13;;;;;;;8.98;6.60;;;3.70;99.90;;;;;;7389323;19;20327;-81
2021/11/26 04:09:40;;;;;;;7.25;6.60;;;3.70;99.90;;;;;;7387787;19;20328;-80
2021/11/26 04:12:08;;;;;;;6.87;6.13;;;3.70;99.90;;;;;;7391956;19;20857;-81
2021/11/26 04:14:34;;;;;;;7.97;6.97;;;3.80;99.90;;;;;;7391176;19;20350;-82
2021/11/26 04:17:01;;;;;;;7.05;6.35;;;3.70;99.90;;;;;;7389964;19;20350;-81
2021/11/26 04:19:27;;;;;;;7.85;6.97;;;3.70;99.90;;;;;;7385457;19;20345;-80
2021/11/26 04:21:53;;;;;;;7.80;6.82;;;3.80;99.90;;;;;;7390273;19;20320;-81
2021/11/26 04:24:19;;;;;;;7.43;6.73;;;3.80;99.90;;;;;;7384964;19;20676;-80
2021/11/26 04:26:45;;;;;;;9.43;7.00;;;3.70;99.90;;;;;;7389017;19;20894;-81
2021/11/26 04:29:11;;;;;;;7.28;6.47;;;3.70;99.90;;;;;;7388812;19;20317;-84
2021/11/26 04:31:40;;;;;;;6.75;6.15;;;3.80;99.90;;;;;;7384427;19;20324;-82
2021/11/26 04:34:06;;;;;;;8.13;6.70;;;3.80;99.90;;;;;;7386691;19;20316;-81
2021/11/26 04:36:32;;;;;;;9.05;6.63;;;3.80;99.90;;;;;;7388507;19;20313;-82
2021/11/26 04:38:58;;;;;;;8.07;6.38;;;3.70;99.90;;;;;;7379776;19;20321;-81
2021/11/26 04:41:25;;;;;;;6.68;5.82;;;3.70;99.90;;;;;;7359109;19;20325;-80
2021/11/26 04:44:23;;;;;;;7.03;6.33;;;3.80;99.90;;;;;;7361441;19;20347;-84
2021/11/26 04:46:56;;;;;;;7.68;6.88;;;3.70;99.90;;;;;;7260805;19;2004442;-79
2021/11/26 04:49:52;;;;;;;7.90;6.50;;;3.70;99.90;;;;;;7373795;19;20379;-80
2021/11/26 04:52:23;;;;;;;8.45;6.60;;;3.70;99.90;;;;;;7301163;19;20320;-85
2021/11/26 04:55:00;;;;;;;8.80;6.80;;;3.80;99.90;;;;;;7349248;19;20300;-81
2021/11/26 05:20:39;;;;;;;7.55;6.30;;;3.70;99.90;;;;;;7420048;19;20368;-89
2021/11/26 05:26:49;;;;;;;6.07;5.20;;;3.80;99.90;;;;;;7380911;19;21154;-78
2021/11/26 05:29:15;;;;;;;7.27;5.97;;;3.80;99.90;;;;;;7389238;19;20357;-77
2021/11/26 05:31:41;;;;;;;7.05;5.90;;;3.70;99.90;;;;;;7392577;19;20341;-78
2021/11/26 05:34:08;;;;;;;7.85;6.10;;;3.70;99.90;;;;;;7394358;19;20329;-78
2021/11/26 05:36:36;;;;;;;7.05;6.07;;;3.70;99.90;;;;;;7352639;19;20325;-79
2021/11/26 05:39:06;;;;;;;6.82;6.20;;;3.70;99.90;;;;;;7371356;19;20332;-81
2021/11/26 05:41:38;;;;;;;8.05;6.00;;;3.60;99.90;;;;;;7272910;19;2004744;-80
2021/11/26 05:45:00;;;;;;;6.70;6.03;;;3.70;99.90;;;;;;7313655;19;20350;-81
2021/11/26 05:47:50;;;;;;;6.43;5.55;;;3.70;99.90;;;;;;7393089;19;20313;-79
2021/11/26 05:50:21;;;;;;;6.80;6.10;;;3.60;99.90;;;;;;7201077;19;2004247;-80
2021/11/26 05:59:06;;;;;;;7.10;6.05;;;3.70;99.90;;;;;;7372164;19;20342;-79
2021/11/26 06:32:09;;;;;;;7.28;5.88;;;3.70;99.90;;;;;;7362076;19;20322;-87
2021/11/26 06:34:35;;;;;;;7.23;5.83;;;3.70;99.90;;;;;;7406483;19;20332;-84
2021/11/26 06:37:08;;;;;;;6.33;5.70;;;3.70;99.90;;;;;;7409679;19;20300;-87
2021/11/26 06:39:35;;;;;;;6.25;5.65;;;3.70;99.90;;;;;;7415463;19;20333;-88
2021/11/26 06:42:05;;;;;;;9.68;6.07;;;3.60;99.90;;;;;;7379569;19;20329;-85
2021/11/26 06:44:38;;;;;;;8.55;6.22;;;3.60;99.90;;;;;;7393728;19;20368;-83
2021/11/26 06:47:07;;;;;;;6.35;5.75;;;3.60;99.90;;;;;;7395751;19;20333;-84
2021/11/26 06:49:35;;;;;;;8.13;7.13;;;3.50;99.90;;;;;;7411553;19;20310;-88
2021/11/26 06:52:02;;;;;;;6.38;5.78;;;3.60;99.90;;;;;;7388312;19;20324;-83
2021/11/26 06:54:29;;;;;;;7.70;6.07;;;3.60;99.90;;;;;;7412178;19;20324;-83
2021/11/26 06:56:55;;;;;;;8.00;6.43;;;3.60;99.90;;;;;;7393895;19;20403;-84
2021/11/26 06:59:25;;;;;;;8.25;6.60;;;3.60;99.90;;;;;;7405635;19;20321;-86
2021/11/26 07:01:55;;;;;;;6.30;5.65;;;3.60;99.90;;;;;;7373675;19;20428;-84
2021/11/26 07:04:23;;;;;;;8.23;6.30;;;3.60;99.90;;;;;;7412442;19;20300;-84
2021/11/26 07:06:51;;;;;;;8.00;6.47;;;3.60;99.90;;;;;;7416596;19;20313;-84
2021/11/26 07:12:13;;;;;;;8.60;6.38;;;3.60;99.90;;;;;;7355891;19;20388;-80
2021/11/26 07:14:51;;;;;;;17.38;9.93;;;3.70;99.90;;;;;;7367923;19;20323;-81
2021/11/26 07:18:01;;;;;;;7.83;6.60;;;3.60;99.90;;;;;;7042962;19;2004408;-80
2021/11/26 07:23:47;;;;;;;7.15;6.45;;;3.60;99.90;;;;;;7377067;19;20317;-79
2021/11/26 07:38:52;;;;;;;8.35;7.45;;;3.70;99.90;;;;;;7374983;19;21238;31
2021/11/26 07:41:18;;;;;;;8.63;7.20;;;3.70;99.90;;;;;;7396396;19;20336;-81
2021/11/26 07:43:44;;;;;;;8.15;7.35;;;3.70;99.90;;;;;;7398161;19;20692;-81
2021/11/26 07:46:10;;;;;;;8.18;6.95;;;3.70;99.90;;;;;;7391239;19;20320;-80
2021/11/26 07:48:36;;;;;;;8.25;7.25;;;3.70;99.90;;;;;;7388930;19;20316;-78
2021/11/26 07:51:02;;;;;;;8.43;7.57;;;3.70;99.90;;;;;;7393822;19;20325;-81
2021/11/26 07:53:29;;;;;;;8.63;7.50;;;3.70;99.90;;;;;;7406522;19;20310;-81
2021/11/26 07:55:55;;;;;;;9.13;8.15;;;3.70;99.90;;;;;;7376514;19;20309;-80
2021/11/26 07:58:21;;;;;;;8.83;7.93;;;3.70;99.90;;;;;;7395994;19;20323;-82
2021/11/26 08:00:47;;;;;;;8.43;7.60;;;3.80;99.90;;;;;;7393266;19;20387;-80
2021/11/26 08:03:15;;;;;;;8.93;7.80;;;3.80;99.90;;;;;;7394188;19;20305;-81
2021/11/26 08:05:40;;;;;;;9.93;7.60;;;3.80;99.90;;;;;;7395590;19;20461;-80
2021/11/26 08:08:09;;;;;;;9.77;7.63;;;3.80;99.90;;;;;;7388716;19;20345;-82
2021/11/26 08:10:36;;;;;;;10.77;9.27;;;3.80;99.90;;;;;;7395430;19;20312;-79
2021/11/26 08:13:02;;;;;;;11.13;8.68;;;3.80;99.90;;;;;;7398526;19;20320;-81
2021/11/26 08:15:28;;;;;;;8.82;7.93;;;3.80;99.90;;;;;;7391851;19;20327;-81
2021/11/26 08:17:58;;;;;;;8.48;7.43;;;3.90;99.90;;;;;;7391712;19;20316;-83
2021/11/26 08:20:25;;;;;;;10.98;8.32;;;3.80;99.90;;;;;;7384590;19;20331;-81
2021/11/26 08:22:51;;;;;;;9.18;8.00;;;3.90;99.90;;;;;;7391578;19;20312;-79
2021/11/26 08:25:17;;;;;;;11.35;8.75;;;3.90;99.90;;;;;;7390764;19;20315;-80
2021/11/26 08:27:43;;;;;;;9.60;8.15;;;3.80;99.90;;;;;;7338115;19;21183;-81
2021/11/26 08:30:10;;;;;;;9.43;7.57;;;3.80;99.90;;;;;;7386256;19;20328;-81
2021/11/26 08:32:36;;;;;;;8.23;7.32;;;3.80;99.90;;;;;;7389020;19;20308;-81
2021/11/26 08:35:02;;;;;;;8.25;7.40;;;3.70;99.90;;;;;;7390437;19;20316;-80
2021/11/26 08:37:28;;;;;;;7.35;6.65;;;3.80;99.90;;;;;;7386227;19;20327;-81
2021/11/26 08:39:54;;;;;;;9.73;7.20;;;3.80;99.90;;;;;;7386150;19;20341;-81
2021/11/26 08:42:20;;;;;;;7.72;6.93;;;3.90;99.90;;;;;;7390505;19;20332;-79
2021/11/26 08:44:46;;;;;;;9.07;7.03;;;3.90;99.90;;;;;;7390296;19;20645;-80
2021/11/26 08:47:11;;;;;;;7.00;6.30;;;3.90;99.90;;;;;;7391301;19;20325;-81
2021/11/26 08:49:37;;;;;;;7.43;6.60;;;3.90;99.90;;;;;;7388727;19;20332;-81
2021/11/26 08:52:03;;;;;;;8.33;6.53;;;3.90;99.90;;;;;;7391189;19;20891;-81
2021/11/26 08:54:29;;;;;;;10.77;7.40;;;3.90;99.90;;;;;;7389321;19;20348;-81
2021/11/26 08:56:56;;;;;;;11.10;8.00;;;4.00;99.90;;;;;;7388387;19;20337;-82
2021/11/26 08:59:23;;;;;;;9.20;6.97;;;4.10;99.90;;;;;;7389775;19;20394;-81
2021/11/26 09:01:49;;;;;;;8.40;7.50;;;4.10;99.90;;;;;;7389858;19;20361;-80
2021/11/26 09:04:14;;;;;;;9.13;7.27;;;4.10;99.90;;;;;;7388183;19;20316;-81
2021/11/26 09:06:40;;;;;;;12.50;7.63;;;4.10;99.90;;;;;;7387087;19;20320;-80
2021/11/26 09:09:06;;;;;;;7.17;6.47;;;4.10;99.90;;;;;;7389225;19;20327;-83
2021/11/26 09:11:31;;;;;;;15.57;7.80;;;4.10;99.90;;;;;;7387582;19;20337;-79
2021/11/26 09:13:57;;;;;;;9.40;7.05;;;4.20;99.90;;;;;;7388012;19;20316;-81
2021/11/26 09:16:23;;;;;;;8.33;7.40;;;4.20;99.90;;;;;;7389467;19;20336;-77
2021/11/26 09:18:49;;;;;;;11.18;7.78;;;4.20;99.90;;;;;;7386423;19;20316;-83
2021/11/26 09:21:15;;;;;;;8.55;7.55;;;4.30;99.90;;;;;;7388429;19;20325;-78
2021/11/26 09:23:40;;;;;;;8.30;7.13;;;4.30;99.90;;;;;;7390672;19;20355;-78
2021/11/26 09:26:06;;;;;;;7.20;6.25;;;4.40;99.90;;;;;;7382961;19;20309;-77
2021/11/26 09:28:32;;;;;;;8.40;6.72;;;4.40;99.90;;;;;;7386357;19;20351;-78
2021/11/26 09:30:58;;;;;;;7.60;6.27;;;4.40;99.90;;;;;;7385533;19;20835;-80
2021/11/26 09:33:23;;;;;;;10.20;6.70;;;4.40;99.90;;;;;;7385884;19;20316;-80
2021/11/26 09:35:49;;;;;;;9.03;6.90;;;4.50;99.90;;;;;;7384417;19;20841;-76
2021/11/26 09:38:15;;;;;;;9.83;7.17;;;4.40;99.90;;;;;;7384061;19;20317;-78
2021/11/26 09:40:42;;;;;;;6.75;6.05;;;4.40;99.90;;;;;;7386258;19;20390;-78
2021/11/26 09:43:07;;;;;;;8.02;6.43;;;4.50;99.90;;;;;;7386321;19;21265;-79
2021/11/26 09:45:34;;;;;;;7.83;7.03;;;4.50;99.90;;;;;;7390188;19;20335;-81
2021/11/26 09:48:00;;;;;;;8.27;7.38;;;4.60;99.90;;;;;;7388070;19;20309;-82
2021/11/26 09:50:26;;;;;;;9.30;6.97;;;4.60;99.90;;;;;;7386665;19;20346;-80
2021/11/26 09:52:57;;;;;;;7.50;6.63;;;4.60;99.90;;;;;;7386311;19;20312;-84
2021/11/26 09:55:23;;;;;;;8.15;6.57;;;4.60;99.90;;;;;;7390308;19;20407;-79
2021/11/26 09:57:49;;;;;;;8.80;6.87;;;4.50;99.90;;;;;;7390815;19;20324;-80
2021/11/26 10:00:15;;;;;;;9.10;7.20;;;4.50;99.90;;;;;;7390747;19;20324;-82
2021/11/26 10:02:52;;;;;;;8.35;6.90;;;4.60;99.90;;;;;;7387713;19;20312;-80
2021/11/26 10:05:18;;;;;;;7.50;6.67;;;4.60;99.90;;;;;;7283445;19;2009083;-80
2021/11/26 10:07:45;;;;;;;6.70;5.65;;;4.60;99.90;;;;;;7385816;19;20369;-80
2021/11/26 10:10:11;;;;;;;8.33;6.80;;;4.70;99.90;;;;;;7385594;19;20312;-81
2021/11/26 10:12:36;;;;;;;8.13;6.80;;;4.70;99.90;;;;;;7362958;19;20309;-79
2021/11/26 10:15:03;;;;;;;8.33;6.57;;;4.70;99.90;;;;;;7383209;19;20324;-79
2021/11/26 10:17:29;;;;;;;6.63;5.90;;;4.80;99.90;;;;;;7384163;19;20384;-79
2021/11/26 10:19:57;;;;;;;7.03;6.32;;;4.80;99.90;;;;;;7379852;19;20883;-78
2021/11/26 10:22:32;;;;;;;7.68;6.55;;;4.90;99.90;;;;;;7383451;19;21191;-79
2021/11/26 10:25:14;;;;;;;6.68;5.70;;;4.90;99.90;;;;;;7376256;19;20327;-78
2021/11/26 10:27:41;;;;;;;10.13;7.00;;;5.00;99.90;;;;;;7384135;19;20348;-80
2021/11/26 10:30:09;;;;;;;9.50;7.00;;;5.00;99.90;;;;;;7384508;19;20351;-81
2021/11/26 10:32:35;;;;;;;7.53;6.70;;;5.10;99.90;;;;;;7389972;19;20714;-81
2021/11/26 10:35:00;;;;;;;6.45;5.85;;;5.10;99.90;;;;;;7388472;19;20308;-81
2021/11/26 10:37:27;;;;;;;11.43;9.53;;;5.10;99.90;;;;;;7392025;19;20696;-84
2021/11/26 10:39:53;;;;;;;8.60;6.50;;;5.20;99.90;;;;;;7388364;19;20340;-84
2021/11/26 10:42:27;;;;;;;8.15;6.68;;;5.20;99.90;;;;;;7394092;19;20336;-83
2021/11/26 10:44:58;;;;;;;8.00;6.13;;;5.40;99.90;;;;;;7392459;19;20319;-82
2021/11/26 10:47:39;;;;;;;7.83;6.53;;;5.40;99.90;;;;;;7392464;19;20332;-84
2021/11/26 10:50:34;;;;;;;7.28;6.57;;;5.40;99.90;;;;;;7390088;19;20950;-83
2021/11/26 10:58:38;;;;;;;6.30;5.70;;;5.50;99.90;;;;;;7299131;19;2004454;-82
2021/11/26 11:01:06;;;;;;;6.93;6.22;;;5.60;99.90;;;;;;7405909;19;20316;-85
2021/11/26 11:03:32;;;;;;;8.75;6.65;;;5.70;99.90;;;;;;7412003;19;20292;-81
2021/11/26 11:05:58;;;;;;;7.28;5.88;;;5.80;99.90;;;;;;7401437;19;20344;-82
2021/11/26 11:08:24;;;;;;;8.20;6.40;;;5.80;99.90;;;;;;7396607;19;20313;-85
2021/11/26 11:10:49;;;;;;;10.43;6.90;;;5.80;99.90;;;;;;7395200;19;20328;-81
2021/11/26 11:13:23;;;;;;;7.13;6.28;;;5.80;99.90;;;;;;7397262;19;20304;-81
2021/11/26 11:15:49;;;;;;;7.22;5.93;;;5.80;99.90;;;;;;7395228;19;20336;-81
2021/11/26 11:18:15;;;;;;;8.45;6.55;;;5.80;99.90;;;;;;7395646;19;20297;-81
2021/11/26 11:20:41;;;;;;;7.68;5.85;;;5.90;99.90;;;;;;7391842;19;20333;-81
2021/11/26 11:23:08;;;;;;;6.35;5.75;;;5.80;99.90;;;;;;7393003;19;20345;-81
2021/11/26 11:25:33;;;;;;;9.03;6.77;;;5.90;99.90;;;;;;7389942;19;20298;-81
2021/11/26 11:28:02;;;;;;;9.13;7.40;;;5.80;99.90;;;;;;7391275;19;20312;-82
2021/11/26 11:30:28;;;;;;;8.10;6.28;;;5.80;99.90;;;;;;7392161;19;20679;-82
2021/11/26 11:32:54;;;;;;;6.60;6.00;;;5.80;99.90;;;;;;7397208;19;20333;-82
2021/11/26 11:35:23;;;;;;;6.82;6.03;;;5.80;99.90;;;;;;7399426;19;20308;-82
2021/11/26 11:37:51;;;;;;;9.45;6.53;;;5.90;99.90;;;;;;7395412;19;20313;-82
2021/11/26 11:40:27;;;;;;;7.22;6.53;;;5.80;99.90;;;;;;7395722;19;20401;-81
2021/11/26 11:42:53;;;;;;;5.90;4.90;;;5.80;99.90;;;;;;7397578;19;20320;-82
2021/11/26 11:45:22;;;;;;;6.55;5.78;;;5.90;99.90;;;;;;7398601;19;20356;-81
2021/11/26 11:47:52;;;;;;;6.95;6.25;;;5.90;99.90;;;;;;7400330;19;20868;-81
2021/11/26 11:50:18;;;;;;;7.53;5.80;;;5.90;99.90;;;;;;7398696;19;20311;-82
2021/11/26 11:52:53;;;;;;;6.88;6.03;;;6.00;99.90;;;;;;7398601;19;20380;-82
2021/11/26 11:55:24;;;;;;;6.78;5.35;;;6.10;99.90;;;;;;7394400;19;20342;-84
2021/11/26 11:57:52;;;;;;;7.28;5.80;;;6.20;99.90;;;;;;7395507;19;20725;-82
2021/11/26 12:00:18;;;;;;;6.55;5.53;;;6.30;99.90;;;;;;7398629;19;20307;-81
2021/11/26 12:02:44;;;;;;;7.78;5.93;;;6.30;99.90;;;;;;7396789;19;20326;-81
2021/11/26 12:05:24;;;;;;;8.77;5.65;;;6.30;99.90;;;;;;7395797;19;20347;-83
2021/11/26 12:07:50;;;;;;;6.73;6.03;;;6.30;99.90;;;;;;7397542;19;20323;-81
2021/11/26 12:10:16;;;;;;;7.03;5.50;;;6.30;99.90;;;;;;7398909;19;20383;-81
2021/11/26 12:12:46;;;;;;;5.82;5.22;;;6.30;99.90;;;;;;7395105;19;20400;-81
2021/11/26 12:15:29;;;;;;;6.07;5.47;;;6.30;99.90;;;;;;7398285;19;20334;-83
2021/11/26 12:18:02;;;;;;;7.10;5.80;;;6.10;99.90;;;;;;7396722;19;20308;-81
2021/11/26 12:20:28;;;;;;;6.60;5.85;;;6.20;99.90;;;;;;7394317;19;20360;-84
2021/11/26 12:22:58;;;;;;;6.68;5.70;;;6.10;99.90;;;;;;7394143;19;21108;-82
2021/11/26 12:28:10;;;;;;;7.23;5.83;;;6.00;99.90;;;;;;7399861;19;20309;-87
2021/11/26 12:30:40;;;;;;;8.07;5.25;;;6.00;99.90;;;;;;7399508;19;20312;-82
2021/11/26 12:33:22;;;;;;;6.38;5.25;;;6.00;99.90;;;;;;7397524;19;20312;-82
2021/11/26 12:36:02;;;;;;;7.55;5.95;;;6.00;99.90;;;;;;7393664;19;20325;-80
2021/11/26 12:38:46;;;;;;;5.57;5.07;;;6.10;99.90;;;;;;7393220;19;20324;-82
2021/11/26 12:41:26;;;;;;;6.50;5.82;;;6.10;99.90;;;;;;7295688;19;2004422;-82
2021/11/26 12:43:51;;;;;;;7.07;5.70;;;6.10;99.90;;;;;;7290614;19;2020271;-85
2021/11/26 12:46:39;;;;;;;6.82;5.32;;;6.00;99.90;;;;;;7392209;19;20324;-82
2021/11/26 12:49:17;;;;;;;6.55;5.90;;;5.90;99.90;;;;;;7393164;19;20729;-82
2021/11/26 12:51:48;;;;;;;6.28;5.47;;;6.00;99.90;;;;;;7292523;19;2004612;-81
2021/11/26 12:54:30;;;;;;;6.95;5.57;;;5.90;99.90;;;;;;7391279;19;20430;-82
2021/11/26 12:56:58;;;;;;;8.20;6.10;;;5.90;99.90;;;;;;7393099;19;21205;-79
2021/11/26 12:59:39;;;;;;;7.57;5.75;;;5.90;99.90;;;;;;7392590;19;20687;-81
2021/11/26 13:02:05;;;;;;;7.47;5.88;;;5.90;99.90;;;;;;7390821;19;20360;-80
2021/11/26 13:04:31;;;;;;;10.20;5.70;;;5.90;99.90;;;;;;7390315;19;20875;-80
2021/11/26 13:07:04;;;;;;;6.15;5.18;;;5.90;99.90;;;;;;7392989;19;20307;-81
2021/11/26 13:09:53;;;;;;;5.50;5.00;;;5.90;99.90;;;;;;7389103;19;20329;-80
2021/11/26 13:12:19;;;;;;;5.65;5.07;;;5.80;99.90;;;;;;7288785;19;2004412;-82
2021/11/26 13:14:54;;;;;;;5.93;5.33;;;5.80;99.90;;;;;;7391875;19;20324;-83
2021/11/26 13:17:20;;;;;;;6.40;5.15;;;5.80;99.90;;;;;;7389454;19;20337;-83
2021/11/26 13:19:56;;;;;;;6.95;4.78;;;5.70;99.90;;;;;;7389064;19;20356;-81
2021/11/26 13:22:22;;;;;;;6.68;4.78;;;5.60;99.90;;;;;;7389129;19;20312;-81
2021/11/26 13:24:51;;;;;;;5.67;4.87;;;5.60;99.90;;;;;;7389415;19;20304;-81
2021/11/26 13:27:17;;;;;;;6.45;5.72;;;5.60;99.90;;;;;;7391028;19;20674;-81
2021/11/26 13:29:51;;;;;;;6.35;5.07;;;5.60;99.90;;;;;;7391554;19;20350;-81
2021/11/26 13:32:17;;;;;;;5.68;5.05;;;5.60;99.90;;;;;;7390478;19;20355;-82
2021/11/26 13:34:53;;;;;;;4.85;4.38;;;5.60;99.90;;;;;;7390954;19;20831;-81
2021/11/26 13:37:20;;;;;;;7.20;5.30;;;5.60;99.90;;;;;;7390173;19;20331;-83
2021/11/26 13:39:56;;;;;;;6.88;4.80;;;5.60;99.90;;;;;;7392384;19;20333;-81
2021/11/26 13:42:22;;;;;;;5.53;4.97;;;5.60;99.90;;;;;;7397089;19;20360;-81
2021/11/26 13:44:48;;;;;;;4.40;4.00;;;5.50;99.90;;;;;;7393187;19;20305;-82
2021/11/26 13:47:14;;;;;;;4.40;4.00;;;5.50;99.90;;;;;;7392237;19;20396;-82
2021/11/26 13:49:39;;;;;;;8.00;5.30;;;5.50;99.90;;;;;;7389844;19;20332;-84
2021/11/26 13:52:07;;;;;;;5.07;4.57;;;5.50;99.90;;;;;;7390565;19;20894;-80
2021/11/26 13:54:34;;;;;;;5.85;4.30;;;5.40;99.90;;;;;;7389911;19;20891;-80
2021/11/26 13:57:00;;;;;;;6.43;4.47;;;5.50;99.90;;;;;;7389311;19;20349;-81
2021/11/26 13:59:29;;;;;;;6.50;5.68;;;5.50;99.90;;;;;;7386457;19;20320;-83
2021/11/26 14:02:08;;;;;;;6.80;5.10;;;5.50;99.90;;;;;;7390064;19;20343;-84
2021/11/26 14:04:34;;;;;;;6.18;5.28;;;5.50;99.90;;;;;;7389112;19;20370;-82
2021/11/26 14:07:10;;;;;;;5.30;4.72;;;5.40;99.90;;;;;;7377330;19;20321;-81
2021/11/26 14:09:36;;;;;;;4.53;4.13;;;5.40;99.90;;;;;;7387332;19;20348;-83
2021/11/26 14:12:12;;;;;;;5.23;4.73;;;5.50;99.90;;;;;;7389917;19;21509;-82
2021/11/26 14:14:38;;;;;;;4.30;3.83;;;5.50;99.90;;;;;;7391437;19;20331;-81
2021/11/26 14:17:04;;;;;;;7.43;4.80;;;5.60;99.90;;;;;;7390340;19;20320;-83
2021/11/26 14:19:39;;;;;;;6.33;4.67;;;5.50;99.90;;;;;;7391533;19;20348;-84
2021/11/26 14:22:06;;;;;;;5.03;4.53;;;5.40;99.90;;;;;;7286052;19;2004451;-81
2021/11/26 14:24:43;;;;;;;5.55;4.72;;;5.40;99.90;;;;;;7384012;19;20333;-82
2021/11/26 14:27:09;;;;;;;6.18;4.82;;;5.50;99.90;;;;;;7391153;19;20323;-82
2021/11/26 14:29:46;;;;;;;5.07;4.57;;;5.40;99.90;;;;;;7390241;19;20324;-81
2021/11/26 14:32:12;;;;;;;4.78;4.15;;;5.30;99.90;;;;;;7388652;19;20353;-82
2021/11/26 14:34:38;;;;;;;4.93;4.40;;;5.30;99.90;;;;;;7387642;19;20309;-82
2021/11/26 14:37:03;;;;;;;6.90;5.00;;;5.20;99.90;;;;;;7389922;19;20335;-81
2021/11/26 14:39:33;;;;;;;5.37;4.57;;;5.20;99.90;;;;;;7388371;19;20337;-81
2021/11/26 14:42:03;;;;;;;5.07;4.57;;;5.20;99.90;;;;;;7388281;19;20380;-82
2021/11/26 14:44:44;;;;;;;5.95;5.10;;;5.20;99.90;;;;;;7388892;19;20336;-81
2021/11/26 14:47:10;;;;;;;4.88;4.38;;;5.10;99.90;;;;;;7388535;19;20312;-81
2021/11/26 14:49:50;;;;;;;7.43;5.03;;;5.00;99.90;;;;;;7386725;19;20348;-81
2021/11/26 14:52:17;;;;;;;5.45;4.50;;;5.00;99.90;;;;;;7390337;19;20336;-82
2021/11/26 14:54:44;;;;;;;6.68;4.85;;;5.00;99.90;;;;;;7391269;19;20312;-90